createdAt,value
2022-12-16T00:01:28.836Z,101573.19
2022-12-16T00:04:00.377Z,101572.75
2022-12-16T00:06:32.508Z,101584.84
2022-12-16T00:09:02.662Z,101579.63
2022-12-16T00:11:33.222Z,101573.25
2022-12-16T00:14:01.883Z,101587.50
2022-12-16T00:16:32.097Z,101584.09
2022-12-16T00:19:00.397Z,101578.53
2022-12-16T00:21:31.128Z,101579.97
2022-12-16T00:24:00.007Z,101573.25
2022-12-16T00:26:41.118Z,101572.94
2022-12-16T00:29:12.409Z,101569.69
2022-12-16T00:31:41.365Z,101568.69
2022-12-16T00:34:12.545Z,101571.25
2022-12-16T00:36:50.003Z,101574.00
2022-12-16T00:39:22.010Z,101577.31
2022-12-16T00:41:51.748Z,101582.09
2022-12-16T00:44:20.206Z,101601.31
2022-12-16T00:46:48.935Z,101597.44
2022-12-16T00:49:17.215Z,101605.88
2022-12-16T00:51:48.583Z,101602.66
2022-12-16T00:54:19.131Z,101605.31
2022-12-16T00:56:52.966Z,101613.13
2022-12-16T00:59:23.231Z,101619.69
2022-12-16T01:01:54.397Z,101622.22
2022-12-16T01:04:26.972Z,101633.47
2022-12-16T01:06:55.168Z,101633.94
2022-12-16T01:09:24.991Z,101637.56
2022-12-16T01:11:53.031Z,101632.41
2022-12-16T01:14:22.292Z,101640.00
2022-12-16T01:16:52.340Z,101631.59
2022-12-16T01:19:23.323Z,101617.53
2022-12-16T01:21:56.239Z,101599.69
2022-12-16T01:24:25.164Z,101595.53
2022-12-16T01:26:55.383Z,101594.25
2022-12-16T01:29:24.124Z,101591.84
2022-12-16T01:31:54.251Z,101601.22
2022-12-16T01:37:40.867Z,101589.19
2022-12-16T01:40:18.548Z,101588.31
2022-12-16T01:42:49.703Z,101582.91
2022-12-16T01:45:36.642Z,101570.91
2022-12-16T01:48:23.688Z,101576.38
2022-12-16T01:51:06.895Z,101587.47
2022-12-16T01:53:38.229Z,101594.78
2022-12-16T01:56:09.250Z,101595.84
2022-12-16T01:58:41.204Z,101588.06
2022-12-16T02:01:10.927Z,101581.09
2022-12-16T02:03:40.453Z,101577.91
2022-12-16T02:06:09.188Z,101596.56
2022-12-16T02:08:38.735Z,101611.91
2022-12-16T02:11:36.514Z,101613.69
2022-12-16T02:14:31.348Z,101610.06
2022-12-16T02:17:20.166Z,101607.72
2022-12-16T02:20:07.621Z,101603.38
2022-12-16T02:23:09.980Z,101597.31
2022-12-16T02:26:05.147Z,101592.63
2022-12-16T02:28:55.100Z,101579.31
2022-12-16T02:31:53.206Z,101586.97
2022-12-16T02:34:49.872Z,101603.88
2022-12-16T02:38:09.281Z,101607.47
2022-12-16T02:40:58.014Z,101605.88
2022-12-16T02:43:50.765Z,101627.59
2022-12-16T02:46:22.273Z,101642.13
2022-12-16T02:48:53.203Z,101637.44
2022-12-16T02:51:30.596Z,101630.56
2022-12-16T02:54:00.372Z,101639.47
2022-12-16T02:56:43.671Z,101639.06
2022-12-16T02:59:36.187Z,101646.09
2022-12-16T03:02:31.760Z,101637.28
2022-12-16T03:05:34.731Z,101618.66
2022-12-16T03:08:07.161Z,101615.84
2022-12-16T03:10:43.750Z,101614.22
2022-12-16T03:13:23.361Z,101604.00
2022-12-16T03:15:56.804Z,101616.25
2022-12-16T03:18:26.723Z,101629.50
2022-12-16T03:21:02.408Z,101629.19
2022-12-16T03:23:41.247Z,101631.63
2022-12-16T03:26:19.549Z,101615.06
2022-12-16T03:28:58.974Z,101609.31
2022-12-16T03:31:51.766Z,101603.50
2022-12-16T03:34:31.823Z,101603.25
2022-12-16T03:37:05.120Z,101613.97
2022-12-16T03:39:37.977Z,101639.88
2022-12-16T03:42:09.300Z,101664.53
2022-12-16T03:44:42.440Z,101684.88
2022-12-16T03:47:11.348Z,101702.59
2022-12-16T03:49:40.464Z,101707.47
2022-12-16T03:52:13.517Z,101700.25
2022-12-16T03:54:44.319Z,101701.00
2022-12-16T03:57:15.562Z,101699.50
2022-12-16T03:59:44.591Z,101707.47
2022-12-16T04:02:14.880Z,101708.34
2022-12-16T04:04:43.762Z,101695.75
2022-12-16T04:07:25.141Z,101690.88
2022-12-16T04:09:55.624Z,101693.03
2022-12-16T04:12:43.168Z,101710.25
2022-12-16T04:15:30.256Z,101716.53
2022-12-16T04:18:18.137Z,101705.56
2022-12-16T04:21:16.894Z,101707.47
2022-12-16T04:24:11.700Z,101704.81
2022-12-16T04:26:58.171Z,101708.88
2022-12-16T04:29:28.913Z,101709.81
2022-12-16T04:31:59.369Z,101699.75
2022-12-16T04:34:27.936Z,101707.47
2022-12-16T04:37:32.481Z,101717.06
2022-12-16T04:40:23.837Z,101731.09
2022-12-16T04:43:10.861Z,101735.53
2022-12-16T07:27:41.574Z,101936.75
2022-12-16T07:30:30.103Z,101942.09
2022-12-16T07:33:19.619Z,101939.53
2022-12-16T07:36:08.339Z,101938.81
2022-12-16T07:39:00.930Z,101936.16
2022-12-16T07:41:54.519Z,101944.66
2022-12-16T07:44:43.094Z,101941.50
2022-12-16T07:47:36.120Z,101938.00
2022-12-16T07:50:37.953Z,101930.28
2022-12-16T07:53:31.334Z,101919.66
2022-12-16T07:56:29.270Z,101923.06
2022-12-16T07:59:18.683Z,101922.84
2022-12-16T08:02:09.256Z,101923.28
2022-12-16T08:05:04.594Z,101916.59
2022-12-16T08:07:56.706Z,101917.78
2022-12-16T08:10:46.285Z,101916.94
2022-12-16T08:13:55.253Z,101923.94
2022-12-16T08:16:44.207Z,101925.00
2022-12-16T08:19:35.322Z,101921.59
2022-12-16T08:22:28.198Z,101905.19
2022-12-16T08:25:16.145Z,101897.56
2022-12-16T08:28:03.172Z,101893.41
2022-12-16T08:30:52.924Z,101886.72
2022-12-16T08:33:42.201Z,101892.22
2022-12-16T08:36:37.446Z,101891.56
2022-12-16T08:39:26.957Z,101883.06
2022-12-16T08:45:19.491Z,101879.47
2022-12-16T08:48:08.758Z,101874.28
2022-12-16T08:51:01.217Z,101885.63
2022-12-16T08:53:55.914Z,101892.66
2022-12-16T08:56:51.216Z,101877.75
2022-12-16T09:03:04.210Z,101865.50
2022-12-16T09:05:58.937Z,101884.38
2022-12-16T09:08:54.601Z,101891.38
2022-12-16T09:11:53.267Z,101889.66
2022-12-16T09:14:46.290Z,101893.19
2022-12-16T09:20:56.092Z,101897.97
2022-12-16T09:23:54.860Z,101889.16
2022-12-16T09:30:08.038Z,101871.66
2022-12-16T09:36:05.516Z,101874.75
2022-12-16T09:38:59.731Z,101871.75
2022-12-16T09:46:19.518Z,101871.38
2022-12-16T09:52:44.619Z,101864.97
2022-12-16T09:55:57.791Z,101870.28
2022-12-16T09:59:15.808Z,101861.94
2022-12-16T10:02:31.497Z,101858.75
2022-12-16T10:05:43.906Z,101843.19
2022-12-16T10:21:01.977Z,101851.38
2022-12-16T10:24:29.664Z,101855.28
2022-12-16T10:27:35.280Z,101838.41
2022-12-16T10:30:35.091Z,101850.38
2022-12-16T10:36:58.189Z,101841.75
2022-12-16T10:40:23.407Z,101850.75
2022-12-16T10:43:39.010Z,101842.09
2022-12-16T10:46:42.113Z,101840.06
2022-12-16T10:52:42.888Z,101837.13
2022-12-16T10:56:10.825Z,101836.44
2022-12-16T10:59:24.119Z,101840.56
2022-12-16T11:02:19.473Z,101847.34
2022-12-16T11:05:37.008Z,101851.91
2022-12-16T11:08:25.804Z,101857.50
2022-12-16T11:11:31.533Z,101859.94
2022-12-16T11:17:59.814Z,101844.84
2022-12-16T11:20:52.304Z,101852.22
2022-12-16T11:23:49.287Z,101853.75
2022-12-16T11:26:42.006Z,101851.81
2022-12-16T11:29:37.948Z,101851.59
2022-12-16T11:32:46.756Z,101840.69
2022-12-16T11:35:39.638Z,101842.38
2022-12-16T11:38:38.917Z,101842.84
2022-12-16T11:41:34.008Z,101848.41
2022-12-16T11:44:23.108Z,101846.22
2022-12-16T11:47:25.562Z,101846.34
2022-12-16T11:50:34.250Z,101847.59
2022-12-16T11:53:55.164Z,101841.31
2022-12-16T11:56:47.164Z,101843.94
2022-12-16T11:59:51.032Z,101837.50
2022-12-16T12:06:46.344Z,101813.72
2022-12-16T12:09:45.636Z,101816.44
2022-12-16T12:13:19.053Z,101816.91
2022-12-16T12:17:13.231Z,101830.22
2022-12-16T12:20:25.712Z,101847.06
2022-12-16T12:23:28.349Z,101831.16
2022-12-16T12:26:33.133Z,101817.34
2022-12-16T12:37:21.980Z,101820.50
2022-12-16T12:40:43.628Z,101827.03
2022-12-16T12:44:17.909Z,101832.03
2022-12-16T12:47:30.710Z,101822.94
2022-12-16T12:50:45.426Z,101820.97
2022-12-16T13:01:23.981Z,101837.94
2022-12-16T13:04:24.226Z,101843.44
2022-12-16T13:07:22.158Z,101831.72
2022-12-16T13:10:47.897Z,101841.69
2022-12-16T13:17:13.200Z,101838.06
2022-12-16T13:20:12.707Z,101828.03
2022-12-16T13:23:00.143Z,101828.59
2022-12-16T13:26:12.360Z,101824.25
2022-12-16T13:29:02.159Z,101820.41
2022-12-16T13:31:54.130Z,101819.88
2022-12-16T13:34:49.038Z,101813.03
2022-12-16T13:37:48.001Z,101823.97
2022-12-16T13:40:41.083Z,101842.66
2022-12-16T13:44:15.011Z,101830.53
2022-12-16T13:47:06.684Z,101843.28
2022-12-16T13:50:27.265Z,101841.44
2022-12-16T13:56:59.956Z,101825.19
2022-12-16T14:06:15.229Z,101854.56
2022-12-16T14:09:03.250Z,101849.25
2022-12-16T14:12:12.388Z,101859.78
2022-12-16T14:15:08.847Z,101864.75
2022-12-16T14:18:26.627Z,101867.50
2022-12-16T14:21:21.118Z,101855.81
2022-12-16T14:24:24.184Z,101838.47
2022-12-16T14:27:12.105Z,101843.56
2022-12-16T14:30:04.786Z,101847.19
2022-12-16T14:32:55.570Z,101824.44
2022-12-16T14:35:46.154Z,101807.00
2022-12-16T14:38:35.209Z,101797.31
2022-12-16T14:41:24.655Z,101776.34
2022-12-16T14:44:12.193Z,101778.44
2022-12-16T14:47:05.414Z,101821.94
2022-12-16T14:49:53.343Z,101837.94
2022-12-16T14:52:48.112Z,101832.09
2022-12-16T14:55:41.207Z,101814.50
2022-12-16T15:02:05.278Z,101841.88
2022-12-16T15:38:55.681Z,101829.25
2022-12-16T16:24:01.283Z,101795.41
2022-12-16T16:26:50.541Z,101768.13
2022-12-16T16:29:39.558Z,101778.53
2022-12-16T16:32:29.543Z,101783.81
2022-12-16T16:35:18.512Z,101789.69
2022-12-16T16:38:06.149Z,101809.88
2022-12-16T16:40:59.526Z,101803.94
2022-12-16T16:43:47.327Z,101816.84
2022-12-16T16:47:00.276Z,101831.72
2022-12-16T16:49:52.089Z,101813.31
2022-12-16T16:52:43.228Z,101812.56
2022-12-16T16:55:36.666Z,101826.84
2022-12-16T16:58:31.047Z,101823.94
2022-12-16T17:01:18.186Z,101810.88
2022-12-16T17:04:10.223Z,101801.16
2022-12-16T17:06:58.104Z,101778.00
2022-12-16T17:09:47.287Z,101782.47
2022-12-16T17:12:51.943Z,101775.34
2022-12-16T17:19:07.079Z,101814.47
2022-12-16T17:21:56.903Z,101815.38
2022-12-16T17:25:07.117Z,101815.66
2022-12-16T17:30:57.129Z,101810.59
2022-12-16T17:33:45.479Z,101823.28
2022-12-16T17:36:35.291Z,101819.28
2022-12-16T17:39:25.583Z,101811.59
2022-12-16T17:42:13.039Z,101796.78
2022-12-16T17:45:00.847Z,101788.44
2022-12-16T17:47:51.551Z,101775.47
2022-12-16T17:50:39.853Z,101775.47
2022-12-16T17:53:29.230Z,101755.09
2022-12-16T17:56:35.613Z,101742.25
2022-12-16T17:59:22.243Z,101722.38
2022-12-16T18:02:10.802Z,101701.28
2022-12-16T18:04:59.134Z,101695.22
2022-12-16T18:07:47.884Z,101694.59
2022-12-16T18:10:36.149Z,101717.25
2022-12-16T18:13:26.393Z,101707.09
2022-12-16T18:16:14.145Z,101706.25
2022-12-16T18:19:03.544Z,101695.06
2022-12-16T18:21:54.097Z,101690.72
2022-12-16T18:24:48.245Z,101671.44
2022-12-16T18:27:40.135Z,101706.19
2022-12-16T18:30:31.512Z,101713.34
2022-12-16T18:36:36.824Z,101689.41
2022-12-16T18:39:25.253Z,101713.75
2022-12-16T18:45:42.314Z,101733.81
2022-12-16T18:48:31.182Z,101745.66
2022-12-16T18:51:25.555Z,101735.75
2022-12-16T18:54:14.314Z,101718.06
2022-12-16T18:57:02.901Z,101719.38
2022-12-16T18:59:51.208Z,101723.91
2022-12-16T19:02:43.782Z,101726.00
2022-12-16T19:05:40.951Z,101738.09
2022-12-16T19:08:30.476Z,101739.47
2022-12-16T19:11:19.191Z,101730.63
2022-12-16T19:14:09.509Z,101747.06
2022-12-16T19:16:58.158Z,101752.41
2022-12-16T19:19:46.043Z,101743.19
2022-12-16T19:22:36.246Z,101755.75
2022-12-16T19:25:27.210Z,101746.81
2022-12-16T19:28:15.179Z,101729.50
2022-12-16T19:31:02.672Z,101730.63
2022-12-16T19:33:50.013Z,101723.56
2022-12-16T19:36:43.871Z,101724.09
2022-12-16T19:39:33.792Z,101732.78
2022-12-16T19:42:20.547Z,101715.38
2022-12-16T19:45:06.997Z,101709.69
2022-12-16T19:47:53.915Z,101705.78
2022-12-16T19:51:03.269Z,101683.16
2022-12-16T19:53:51.510Z,101694.03
2022-12-16T19:56:39.417Z,101689.88
2022-12-16T19:59:25.947Z,101685.31
2022-12-16T20:02:12.781Z,101688.09
2022-12-16T20:05:02.010Z,101691.03
2022-12-16T20:07:48.844Z,101686.59
2022-12-16T20:10:37.255Z,101675.72
2022-12-16T20:13:30.432Z,101670.06
2022-12-16T20:16:24.533Z,101661.94
2022-12-16T20:19:11.320Z,101673.88
2022-12-16T20:22:06.174Z,101669.41
2022-12-16T20:24:56.515Z,101662.91
2022-12-16T20:30:56.316Z,101675.59
2022-12-16T20:33:43.203Z,101682.59
2022-12-16T20:36:32.252Z,101688.41
2022-12-16T20:39:19.704Z,101681.63
2022-12-16T20:42:06.870Z,101688.41
2022-12-16T20:44:56.227Z,101676.56
2022-12-16T20:47:44.206Z,101665.63
2022-12-16T20:50:32.475Z,101656.69
2022-12-16T20:53:19.977Z,101654.53
2022-12-16T20:56:07.317Z,101646.44
2022-12-16T20:58:56.240Z,101637.34
2022-12-16T21:02:14.569Z,101639.97
2022-12-16T21:04:50.096Z,101638.81
2022-12-16T21:07:37.882Z,101642.22
2022-12-16T21:10:24.757Z,101638.59
2022-12-16T21:13:13.760Z,101634.22
2022-12-16T21:16:00.629Z,101628.69
2022-12-16T21:18:47.550Z,101630.47
2022-12-16T21:21:33.970Z,101627.97
2022-12-16T21:24:20.053Z,101631.59
2022-12-16T21:27:06.442Z,101631.59
2022-12-16T21:29:54.068Z,101626.03
2022-12-16T21:32:49.101Z,101612.47
2022-12-16T21:35:39.013Z,101614.69
2022-12-16T21:38:29.730Z,101615.72
2022-12-16T21:41:16.570Z,101621.22
2022-12-16T21:44:03.241Z,101615.66
2022-12-16T21:46:51.874Z,101620.25
2022-12-16T21:49:40.867Z,101628.47
2022-12-16T21:52:29.858Z,101621.94
2022-12-16T21:55:16.624Z,101613.22
2022-12-16T21:58:05.534Z,101613.72
2022-12-16T22:04:06.961Z,101597.75
2022-12-16T22:13:38.497Z,101599.06
2022-12-16T22:16:31.108Z,101600.88
2022-12-16T22:19:19.705Z,101596.63
2022-12-16T22:22:07.054Z,101604.50
2022-12-16T22:36:22.148Z,101606.44
2022-12-16T23:00:52.156Z,101602.69
2022-12-16T23:16:58.082Z,101608.75
